LSMA 071420Z 07005KT 010V110 9999 FEW058 SCT067 BKN088 22/13 Q1024 RMK BLU EDAC 071420Z 24009KT 200V270 9999 BKN021 20/14 Q1018 ETHA 071420Z 28010KT 9999 -SHRA FEW035TCU BKN060 16/12 Q1024 BLU FCST CNL LFLP 071430Z AUTO 36009KT 320V050 9999 SCT070 BKN088 27/11 Q1023 NOSIG LIMW 071420Z AUTO 29014KT 250V310 9999 FEW120/// SCT140/// 29/07 Q1017 EDMA 071420Z 28011KT 240V310 9999 OVC034 19/13 Q1022 LIPA 071355Z /////KT 9999 -TSRA FEW050CB BKN070 23/20 Q1014 RMK BKN VIS MIN 9999 WIND THR05 /////KT WIND THR23 /////KT A2997 BLU EHMA 071425Z AUTO 33027KT 9999 FEW020 SCT026 BKN030 15/10 Q1024 LFSB 071430Z 27008KT 240V320 9999 FEW050 BKN083 23/13 Q1024 NOSIG LIME 071420Z VRB05KT 9999 FEW040 31/15 Q1015 NOSIG EDDB 071420Z 24009KT 200V290 9999 SCT020 20/15 Q1016 TEMPO 4000 SHRA BKN012 LSZB 071420Z 31009KT 280V340 9999 SCT050 BKN060 BKN083 23/12 Q1024 NOSIG EBLG 071420Z 31011KT 270V350 9999 SCT021 BKN040 17/12 Q1027 NOSIG LIPE 071420Z 34005KT 300V070 9999 FEW050 32/14 Q1013 EDVE 071420Z 30011KT 270V330 9999 FEW022 BKN030 19/14 Q1018 EDDW 071420Z AUTO 31019KT 9999 FEW025 SCT031 BKN040 17/11 Q1021 TEMPO 32020G30KT LIPO 071420Z AUTO VRB06KT 9999 NCD 31/15 Q1014 ETHB 071420Z 35012KT 9999 -SHRA BKN012 BKN022 16/14 Q1021 GRN BLU TEMPO GRN ETSB 071420Z 32010KT 9999 -DZ SCT010 BKN020 15/11 Q1025 WHT BLU TEMPO GRN EHHW 071425Z AUTO 33024KT 9999 FEW023/// BKN027/// OVC030/// 15/09 Q1024 LSZC 071420Z AUTO 17003KT 140V210 9999 SCT055 SCT065 23/11 Q1024 LFMD 071430Z AUTO 16007KT 110V190 CAVOK 30/19 Q1014 NOSIG ETHC 071420Z 31010KT 9999 -SHRA BKN020 BKN060 16/14 Q1019 WHT WHT BECMG BLU LIPC 071355Z 10011KT 9999 FEW040TCU 28/20 Q1014 RMK SCT VIS MIN 9999 WIND THR11 10011KT WIND THR29 11011KT BLU LFLB 071430Z AUTO 32008KT 280V010 9999 FEW074 29/13 Q1022 NOSIG LIVC 071355Z AUTO 34003KT //// 16/11 Q1027 LFGA 071430Z AUTO 27004KT 230V310 CAVOK 22/12 Q1024 EHDL 071425Z AUTO 33014KT 280V030 9999 SCT027 OVC030 17/11 Q1025 BLU ETND 071320Z 32012KT 9999 FEW009 SCT019TCU BKN050 16/13 Q1021 BLU LFSD 071430Z AUTO 36010KT 330V040 CAVOK 23/12 Q1025 LFGJ 071430Z AUTO 35010KT 9999 FEW049 OVC066 24/13 Q1025 NOSIG EDLW 071420Z VRB08KT 9999 SCT021 BKN025 18/14 Q1023 EDDC 071420Z AUTO 25009KT 230V290 9999 BKN015 BKN022 BKN026 17/13 Q1018 TEMPO 4500 SHRA BKN012 LSMD 071420Z 31010KT 280V340 9999 BKN081 23/11 Q1024 RMK BLU EDDL 071420Z AUTO 31011KT 9999 SCT028 20/13 Q1024 NOSIG EHEH 071427Z AUTO 33014KT 270V030 9999 SCT031 BKN042 OVC047 19/11 Q1026 BLU TEMPO 34013G23KT EBLB 071425Z AUTO 31008KT 9999 -DZ OVC007/// 13/12 Q1026 GRN EDWE 071420Z AUTO 32015KT 290V350 9999 ///////// 16/11 Q1023 LSME 071420Z 36004KT 250V060 9999 SCT054 BKN062 BKN071 24/13 Q1024 RMK BLU LFSG 071430Z AUTO 31012KT 9999 FEW034 OVC066 22/13 Q1026 EDDE 071420Z AUTO 31017KT 9999 SCT025 17/13 Q1020 TEMPO 31015G25KT LIPY 071420Z AUTO 07010KT 050V120 9999 NCD 29/18 Q1013 ETHS 071420Z 31017G27KT 9999 BKN020 BKN030 17/12 Q1019 WHT BLU TEMPO GRN LIRQ 071420Z 34005KT 290V030 9999 FEW040TCU 33/15 Q1012 EDDF 071420Z 30016KT 260V320 9999 FEW024 SCT034 20/12 Q1023 NOSIG EDNY 071420Z 29004KT 220V340 CAVOK 21/11 Q1023 ETHF 071420Z 30008KT 9999 FEW030 BKN060 19/12 Q1021 BLU BLU TEMPO WHT LIVF 071355Z 01006KT 9999 FEW035CB FEW040TCU 28/19 Q1015 ETNG 071350Z 30013KT 9999 FEW030 BKN050 19/14 Q1025 NOSIG LSGG 071420Z 02006KT 330V060 9999 FEW060 26/10 Q1023 NOSIG LIMJ 071420Z 15006KT CAVOK 28/23 Q1013 LIPL 071355Z 21003KT CAVOK 30/17 Q1014 RMK BKN BKN200 VIS MIN 9999 WIND THR31 30003KT WIND THR13 24003KT BLU ETIC 071416Z AUTO 25003KT 9999 BKN009 BKN015 OVC021 15/14 A3012 RMK AO2 RAE1357DZB1357E01 BKN009 V OVC SLP200 $ LSZG 071420Z 32007KT 270V340 9999 FEW055 23/09 Q1024 NOSIG LFLS 071430Z AUTO 34015KT 300V020 CAVOK 26/11 Q1023 TEMPO 35015G26KT EHGG 071425Z AUTO 33014G24KT 270V020 9999 BKN023 OVC032 16/10 Q1024 NOSIG EDFH 071420Z 30011KT 270V330 9999 BKN017 15/12 Q1025 EDHI 071420Z 31015KT 270V340 9999 FEW031 BKN038TCU 17/10 Q1018 EDDH 071420Z AUTO 31018KT 9999 BKN034 18/10 Q1018 TEMPO 32020G30KT EDDV 071420Z AUTO 32014KT 9999 BKN017 BKN026 BKN031 17/14 Q1020 TEMPO 32020G35KT EDQM 071420Z 24008KT 200V260 9999 SCT010 BKN013 15/13 Q1020 ETIH 071406Z AUTO 22006KT 9999 -DZ SCT018 BKN022 BKN027 BKN033 17/13 A3015 RMK AO2 DZB06 CIG 022V028 BKN022 V SCT SLP206 $ ETNH 071420Z 29019G29KT 9999 BKN038 18/10 Q1017 BLU BLU TEMPO WHT ETSH 071420Z 19004KT 9000 -SHRA FEW008 BKN012 BKN050 17/15 Q1016 GRN BLU TEMPO GRN LFTH 071430Z AUTO 22008KT 190V250 CAVOK 33/14 Q1014 NOSIG ETIK 071426Z AUTO 28007KT 9999 FEW002 BKN046 BKN070 16/14 A3018 RMK AO2 RAE22DZB22E26 SLP218 $ ETSI 071420Z 26015KT 7000 -SHRA SCT027TCU BKN042 BKN060 18/13 Q1021 WHT LOWI 071420Z 10004KT 020V150 9999 -SHRA FEW020 SCT060 BKN085 18/13 Q1022 TEMPO SHRA LIPS 071355Z /////KT 9999 VCTS FEW025CB SCT050 28/19 Q1014 RETS RMK BKN VIS MAX N 25 KM VIS MIN 9999 WIND THR26 18002KT WIND THR08 21002KT BLU LKKV 071430Z 26006KT 220V290 9000 BKN008 OVC011 13/11 Q1020 EDSB 071420Z 28007KT 230V350 9999 FEW036 23/13 Q1023 ETEB 071419Z AUTO 28013G16KT 9999 -DZ FEW023 FEW030 FEW200 17/16 A3015 RMK AO2 DZB19 SLP217 $ LKKB 071400Z 23012KT 9999 -RA BKN032 BKN050 16/12 Q1019 NOSIG EDHK 071420Z 31015KT 9999 BKN033 17/10 Q1017 LOWK 071420Z AUTO 26004KT 230V290 9999 -RA VCTS FEW025 FEW035CB BKN080 19/16 Q1020 NOSIG EBBL 071425Z AUTO 32009KT 9999 SCT026/// SCT055/// 20/13 Q1026 BLU EDDK 071420Z AUTO 31014KT 9999 -RA BKN025 BKN036 18/13 Q1024 NOSIG ETNL 071420Z 29012KT 9999 VCSH FEW008 BKN046 17/15 Q1015 BLU BLU TEMPO GRN ETHL 071420Z 29010KT 9999 FEW040 BKN090 19/10 Q1023 BLU BLU TEMPO WHT LFMC 071430Z AUTO 15010KT 120V200 9999 ////// 34/16 Q1013 ETSL 071420Z 26011KT 9999 SCT035 BKN050 BKN100 19/11 Q1022 BLU EHLW 071429Z AUTO 33018KT 290V010 9999 FEW023 SCT027 OVC034 17/10 Q1025 BLU EDDP 071420Z 27011KT 9999 -SHRA SCT025CB 18/16 Q1017 TEMPO 30015G25KT SHRA EHLE 071425Z AUTO 33018KT 300V360 9999 FEW027 SCT030 BKN035 17/11 Q1026 NOSIG LSGC 071420Z VRB06KT 9999 BKN030 18/10 Q1027 WS R24 LIMZ 071420Z AUTO VRB04KT 9999 NCD 30/16 Q1016 LOWL 071420Z AUTO 29009KT 9999 FEW035 BKN048 15/13 Q1022 NOSIG LJLJ 071430Z 28011KT 9999 SHRA VCTS FEW040CB SCT050 BKN100 19/16 Q1018 TEMPO TSRA LSZL 071420Z 28003KT 230V320 9999 FEW080 28/17 Q1015 RMK BLU+ EDHL 071420Z 30011KT 240V340 9999 BKN027 18/12 Q1017 LSZA 071420Z VRB03KT 9999 FEW065 29/17 Q1015 ELLX 071420Z 33013KT 290V010 9999 FEW025 SCT033 BKN048 19/11 Q1026 NOSIG LFSX 071430Z AUTO 33009KT 280V010 9999 FEW041 SCT050 BKN062 22/12 Q1025 LFLL 071430Z 36017KT CAVOK 26/13 Q1024 NOSIG EDFM 071420Z 31012KT 9999 BKN040 21/11 Q1023 LFML 071430Z AUTO 33022KT CAVOK 33/11 Q1015 TEMPO 34025G40KT ETGG 071420Z AUTO 32019KT 9999 // ////// 17/11 Q1017 /// LSMM 071420Z 31006KT 260V350 9999 SCT050 SCT077 23/11 Q1024 RMK BLU+ EDJA 071420Z 28010KT 9999 FEW041 SCT049 BKN057 20/12 Q1023 ETWM 071420Z AUTO 34009G26KT //// // ////// 17/10 Q1023 /// LFJL 071430Z AUTO 35012KT 300V020 9999 SCT042 SCT049 BKN056 21/11 Q1026 TEMPO 35015G25KT LIML 071420Z 27005KT 200V350 CAVOK 32/15 Q1014 NOSIG LIMC 071420Z VRB06KT 9999 FEW050 33/13 Q1015 NOSIG EDLN 071420Z 30013KT 9999 BKN023 BKN028 19/14 Q1024 EDDG 071420Z 32013KT 280V050 9999 SCT020TCU BKN045 17/12 Q1023 NOSIG EDDM 071420Z AUTO 27008KT 240V310 9999 SCT037 19/13 Q1022 NOSIG LFSN 071430Z AUTO 32010KT 270V350 9999 FEW033 SCT044 OVC054 21/13 Q1026 LFSO 071430Z AUTO 31013KT 280V340 9999 SCT031 BKN042 OVC052 19/12 Q1026 ETSN 071435Z 27003KT 6000 -SHRA FEW030TCU SCT041 BKN060 17/14 Q1021 WHT BLU TEMPO GRN LFMN 071430Z 19007KT CAVOK 29/21 Q1014 NOSIG EDLV 071420Z 32009KT 290V360 9999 SCT028 BKN046 19/12 Q1025 ETHN 071420Z 29009KT 9999 FEW012 SCT035 BKN080 15/13 Q1022 BLU BLU TEMPO GRN ETNN 071420Z 27012KT 9999 SCT020 BKN035 18/13 Q1025 BLU BLU ETMN 071420Z 32018KT 9999 FEW018 BKN032 16/11 Q1020 BLU BLU EDDN 071420Z AUTO 26010KT 9999 SCT016 18/14 Q1021 TEMPO SHRA BKN012 BKN020CB EDMO 071420Z 26006KT 9999 FEW055 19/15 Q1023 EDLP 071420Z 30007KT 260V360 9999 -SHRA FEW014 BKN029 OVC034 17/13 Q1022 LIVP 071355Z 22006KT 9999 FEW005TCU SCT015 13/10 Q1024 LSMP 071420Z AUTO 34008KT 300V030 9999NDV NCD 25/11 Q1024 RMK LIRZ 071420Z AUTO 04013KT 9999 FEW086/// 31/14 Q1013 LIMH 071355Z AUTO 02029G40KT //// 03/M02 Q1033 LIRP 071415Z 30009KT 9999 FEW020CB 27/23 Q1014 NOSIG LKLN 071400Z AUTO 24006KT 210V300 9999 BKN015 OVC018 14/12 Q1021 LIVM 071355Z 10008KT 9999 SCT030 32/19 Q1015 RMK BKN SCT070 QUK 3 QUL 2 E VIS MAR 12 KM VIS MIN 9999 LJPZ 071430Z 30007KT 9999 FEW050 BKN200 27/17 Q1014 LKPR 071430Z 24017KT 9999 SCT014 BKN030 16/12 Q1019 NOSIG LDPL 071430Z 15006KT 090V220 CAVOK 31/06 Q1014 NOSIG LIVE 071355Z 01008KT 9999 FEW025 BKN030 19/06 Q1023 RMK BKN VIS MIN 9999 LSZR 071420Z 33006KT 280V010 9999 VCSH SCT050 BKN060 21/11 Q1023 NOSIG RMK K LDRI 071430Z 36008KT 310V050 9999 FEW050 29/11 Q1014 LIPR 071420Z 10009KT 070V130 9999 FEW030 28/17 Q1014 LIPI 071355Z 16003KT 9999 SCT030 28/17 Q1015 RMK BKN SCT160 VIS MIN 9999 WIND THR06 21005KT WIND THR24 17004KT BLU LIVR 071255Z 24005KT 9999 FEW025 SCT040 15/09 Q1025 RMK BKN MON CLD SCT VIS MIN 9999 LIPQ 071420Z AUTO 26006KT 9999 FEW090/// BKN200/// 29/11 Q1014 EDDR 071420Z AUTO 33010KT 300V010 9999 SCT047 20/11 Q1025 NOSIG LFMY 071430Z AUTO 33022KT CAVOK 31/09 Q1015 LOWS 071420Z 14005KT 110V170 9999 -RA FEW007 BKN045 16/12 Q1022 NOSIG LSZS 071420Z 01018G29KT 9999 -RA SCT070 BKN085 14/06 Q1025 RMK R TL170 EBDT 071425Z AUTO 33013KT 9999 BKN023/// 19/12 Q1027 WHT ETNS 071420Z 30023KT 9999 FEW022 BKN028 17/09 Q1017 BLU BLU TEMPO WHT EDTY 071420Z 29012KT 9999 SCT019 BKN034 OVC044 17/13 Q1023 EDGS 071420Z 30013KT 9999 FEW006 BKN008 OVC013 13/12 Q1023 LSGS 071420Z VRB06G20KT 9999 BKN100 28/07 Q1021 EKSB 071420Z 29013KT 250V310 9999 FEW031 19/12 Q1016 ETAD 071411Z AUTO 32009KT 9999 SCT019 OVC030 17/12 A3026 RMK AO2 SLP234 $ LFST 071430Z AUTO 31015KT 9999 FEW035 BKN088 23/13 Q1024 TEMPO 34015G25KT EDDS 071420Z AUTO 29016KT 260V320 9999 -SHRA SCT036 FEW///CB 20/11 Q1023 TEMPO SHRA EPSC 071430Z 19007KT 160V230 9999 FEW008 SCT010CB BKN012 17/15 Q1015 LIMF 071420Z VRB02KT CAVOK 31/17 Q1015 LIPH 071420Z 15004KT 090V190 9999 FEW040 SCT070 27/15 Q1014 LIPZ 071420Z 18004KT 9999 FEW060 26/16 Q1014 TEMPO RA LIPX 071420Z 25007KT 210V300 CAVOK 32/14 Q1013 EHVL 071425Z AUTO 33022KT 9999 BKN028 OVC033 16/10 Q1026 BLU EHVK 071425Z AUTO 34010G22KT 270V020 9999 FEW031 SCT037 BKN043 19/12 Q1025 BLU TEMPO 33010G22KT EDXW 071420Z 33025KT 9999 FEW022 OVC030 16/11 Q1019 ETOU 071430Z AUTO 31016G20KT 9999 -RA SCT033 SCT043 OVC065 21/12 A3022 RMK AO2 RAB13E22RAB30 SLP233 $ ETNT 071420Z 32018KT 9999 FEW020 SCT025 BKN035 15/12 Q1022 BLACKBLU ETNW 071420Z 33017KT 9999 FEW015 BKN022TCU BKN050 17/13 Q1020 WHT BLU TEMPO GRN LOXZ 071420Z VRB03KT 9999 FEW045 SCT060 BKN090 18/12 Q1020 TEMPO -SHRA EHBK 071425Z AUTO 31009G19KT 230V030 9999 SCT020 BKN023 BKN026 18/13 Q1026 NOSIG LSZH 071420Z 30010KT 9999 SCT070 22/11 Q1024 NOSIG

METAR Messwerte

Klicken Sie auf einen Ort, um die 36h-Historie abzurufen

Ortsname
Ländercode / m ü. NN
Zeit Temperatur Taupunkt Rel.
Luftfeuchte
Luftdruck:
Altimeter
NN
Station
Wind in Beaufort
(Knoten)
Sichtweite
(Meter)
Wolken
(Meter über Grund)
Wettererscheinung
ALPNACH
CH 441
Do 07.07. 16:20221357 %1024
1023
972
ONO 2 (5)
N - OSO
>= 10000Stark bewölkt (2700)
Wolkig (2000)
Leicht bewölkt (1800)
 
ALTENBURG-NOBITZ
DE 193
Do 07.07. 16:20201468 %1018
1018
995
WSW 3 (9)
SSW - W
>= 10000Stark bewölkt (640) 
ALTENSTADT/SCHON
DE 738
Do 07.07. 16:20161277 %1024
1024
938
W 3 (10)>= 10000Stark bewölkt (1800)
Leicht bewölkt (1100)
Regen-Schauer (schwach)
ANNECY/MEYTHET
FR 460
Do 07.07. 16:30271137 %1023
1021
969
N 3 (9)
NW - NO
>= 10000Stark bewölkt (2700)
Wolkig (2100)
 
AOSTA ARPT
IT 554
Do 07.07. 16:2029725 %1017
1014
952
WNW 4 (14)
WSW - NW
>= 10000Wolkig (4300)
Leicht bewölkt (3700)
 
AUGSBURG/MULHAUS
DE 462
Do 07.07. 16:20191368 %1022
1021
967
W 4 (11)
WSW - NW
>= 10000Bedeckt (1000) 
AVIANO (IT/US-AF
IT 113
Do 07.07. 15:55232083 %1014
1014
1000
 >= 10000Stark bewölkt (2100)
Leicht bewölkt Cb (1500)
Gewitter mit Regen (schwach)
AWG-1 SEA
NL 27
Do 07.07. 16:25151072 %1024
1024
1021
NNW 7 (27)>= 10000Stark bewölkt (910)
Wolkig (790)
Leicht bewölkt (610)
 
BALE/MULHOUSE
FR 262
Do 07.07. 16:30231353 %1024
1023
993
W 3 (8)
WSW - NW
>= 10000Stark bewölkt (2500)
Leicht bewölkt (1500)
 
BERGAMO/ORIO SER
IT 239
Do 07.07. 16:20311538 %1015
1013
987
Uml 2 (5)>= 10000Leicht bewölkt (1200) 
BERLIN/BRANDERNB
DE 48
Do 07.07. 16:20201573 %1016
1016
1010
WSW 3 (9)
SSW - WNW
>= 10000
Bald zeitweise: 4000
Wolkig (610) Bald zeitweise: Regen-Schauer
BERN/BELP
CH 510
Do 07.07. 16:20231250 %1024
1022
964
NW 3 (9)
W - NNW
>= 10000Stark bewölkt (2500)
Stark bewölkt (1800)
Wolkig (1500)
 
BIERSET/LIEGE (C
BE 187
Do 07.07. 16:20171272 %1027
1027
1004
NW 4 (11)
W - N
>= 10000Stark bewölkt (1200)
Wolkig (640)
 
BOLOGNA/BORGO (A
IT 37
Do 07.07. 16:20321434 %1013
1013
1009
NNW 2 (5)
WNW - ONO
>= 10000Leicht bewölkt (1500) 
BRAUNSCHWEIG
DE 83
Do 07.07. 16:20191473 %1018
1018
1008
WNW 4 (11)
W - NNW
>= 10000Stark bewölkt (910)
Leicht bewölkt (670)
 
BREMEN
DE 5
Do 07.07. 16:20171168 %1021
1021
1020
NW 5 (19)
Bald zeitweise:
NW 5 (20) - 7 (30)
>= 10000Stark bewölkt (1200)
Wolkig (940)
Leicht bewölkt (760)
 
BRESCIA/MONTICHI
IT 104
Do 07.07. 16:20311538 %1014
1013
1002
Uml 2 (6)>= 10000  
BUCKEBURG(GER-AR
DE 69
Do 07.07. 16:20161488 %1021
1021
1013
N 4 (12)>= 10000Stark bewölkt (670)
Stark bewölkt (370)
Regen-Schauer (schwach)
BUECHEL
DE 477
Do 07.07. 16:20151177 %1025
1025
968
NW 3 (10)>= 10000Stark bewölkt (610)
Wolkig (300)
Nieselregen (schwach)
BUITENGAATS
NL 10
Do 07.07. 16:2515967 %1024
1024
1023
NNW 6 (24)>= 10000Bedeckt (910)
Stark bewölkt (820)
Leicht bewölkt (700)
 
BUOCHS
CH 445
Do 07.07. 16:20231147 %1024
1023
971
S 2 (3)
SO - SSW
>= 10000Wolkig (2000)
Wolkig (1700)
 
CANNES/MANDELIEU
FR 2
Do 07.07. 16:30301952 %1014
1014
1014
SSO 3 (7)
OSO - S
>= 10000Nicht signifikant 
CELLE (GER-ARMY)
DE 35
Do 07.07. 16:20161488 %1019
1019
1015
NW 3 (10)>= 10000Stark bewölkt (1800)
Stark bewölkt (610)
Regen-Schauer (schwach)
CERVIA (IT-AFB)
IT 10
Do 07.07. 15:55282062 %1014
1014
1013
O 4 (11)>= 10000Leicht bewölkt (1200) 
CHAMBERY/AIX BAI
FR 234
Do 07.07. 16:30291337 %1022
1021
994
NW 3 (8)
W - N
>= 10000Leicht bewölkt (2300) 
CIMONE MOUNTAIN
IT 2139
Do 07.07. 15:55161172 %1027
1026
792
NNW 2 (3)   
COLMAR HOUSSEN
FR 191
Do 07.07. 16:30221253 %1024
1024
1001
W 2 (4)
SW - NW
>= 10000Nicht signifikant 
DEELEN RNLAFB
NL 49
Do 07.07. 16:25171168 %1025
1025
1019
NNW 4 (14)
W - NNO
>= 10000Bedeckt (910)
Wolkig (820)
 
DIEPHOLZ (GER-AF
DE 37
Do 07.07. 15:20161382 %1021
1021
1017
NW 4 (12)>= 10000Stark bewölkt (1500)
Wolkig (580)
Leicht bewölkt (270)
 
DIJON/LONGVIC(FA
FR 218
Do 07.07. 16:30231250 %1025
1024
999
N 3 (10)
NNW - NO
>= 10000Nicht signifikant 
DOLE TAVAUX
FR 191
Do 07.07. 16:30241350 %1025
1024
1002
N 3 (10)>= 10000Bedeckt (2000)
Leicht bewölkt (1500)
 
DORTMUND/WICKEDE
DE 122
Do 07.07. 16:20181477 %1023
1023
1008
Uml 3 (8)>= 10000Stark bewölkt (760)
Wolkig (640)
 
DRESDEN/KLOTZSCH
DE 227
Do 07.07. 16:20171377 %1018
1018
991
WSW 3 (9)
SW - WNW
>= 10000
Bald zeitweise: 4500
Stark bewölkt (790)
Stark bewölkt (670)
Stark bewölkt (460)
 Bald zeitweise: Regen-Schauer
DUBENDORF
CH 436
Do 07.07. 16:20231147 %1024
1023
972
NW 3 (10)
W - NNW
>= 10000Stark bewölkt (2500) 
DUESSELDORF
DE 37
Do 07.07. 16:20201364 %1024
1024
1020
NW 4 (11)>= 10000Wolkig (850) 
EINDHOVEN RNLAFB
NL 20
Do 07.07. 16:27191160 %1026
1026
1024
NNW 4 (14)
W - NNO
Bald zeitweise:
NNW 4 (13) - 6 (23)
>= 10000Bedeckt (1400)
Stark bewölkt (1300)
Wolkig (940)
 
ELSENBORN (MIL)
BE 563
Do 07.07. 16:25131294 %1026
1027
959
NW 3 (8)>= 10000Bedeckt (210)Nieselregen (schwach)
EMDEN-KOENIGSPO
DE 0
Do 07.07. 16:20161172 %1023
1023
1023
NW 4 (15)
WNW - N
>= 10000  
EMMEN
CH 427
Do 07.07. 16:20241350 %1024
1023
973
N 2 (4)
WSW - ONO
>= 10000Stark bewölkt (2200)
Stark bewölkt (1900)
Wolkig (1600)
 
EPINAL/MIRECOURT
FR 320
Do 07.07. 16:30221357 %1026
1025
988
NW 4 (12)>= 10000Bedeckt (2000)
Leicht bewölkt (1000)
 
ERFURT/BINDERSLE
DE 314
Do 07.07. 16:20171377 %1020
1020
983
NW 5 (17)
Bald zeitweise:
NW 4 (15) - 6 (25)
>= 10000Wolkig (760) 
FALCONARA (IT-AF
IT 11
Do 07.07. 16:20291852 %1013
1013
1012
ONO 3 (10)
NO - OSO
>= 10000  
FASSBERG (GER-AF
DE 71
Do 07.07. 16:20171272 %1019
1019
1010
NW 5 (17) - 7 (27)>= 10000Stark bewölkt (910)
Stark bewölkt (610)
 
FIRENZE/PERETOLA
IT 33
Do 07.07. 16:20331534 %1012
1012
1008
NNW 2 (5)
WNW - NNO
>= 10000Leicht bewölkt (1200) 
FRANKFURT MAIN A
DE 113
Do 07.07. 16:20201260 %1023
1023
1009
WNW 5 (16)
W - NW
>= 10000Wolkig (1000)
Leicht bewölkt (730)
 
FRIEDRICHSHAFEN
DE 411
Do 07.07. 16:20211153 %1023
1022
974
WNW 2 (4)
SW - NNW
>= 10000Nicht signifikant 
FRITZLAR (GER-AR
DE 171
Do 07.07. 16:20191264 %1021
1021
1000
WNW 3 (8)>= 10000Stark bewölkt (1800)
Leicht bewölkt (910)
 
FRONTONE
IT 549
Do 07.07. 15:55281958 %1015
1012
951
N 2 (6)>= 10000Leicht bewölkt (1200)
Leicht bewölkt Cb (1100)
 
GEILENKIRCHEN(NA
DE 76
Do 07.07. 15:50191473 %1025
1025
1016
WNW 4 (13)>= 10000Stark bewölkt (1500)
Leicht bewölkt (910)
 
GENEVA/COINTRIN
CH 411
Do 07.07. 16:20261037 %1023
1021
974
NNO 2 (6)
NNW - ONO
>= 10000Leicht bewölkt (1800) 
GENOVA/SESTRI
IT 3
Do 07.07. 16:20282374 %1013
1013
1013
SSO 2 (6)>= 10000Nicht signifikant 
GHEDI (IT-AFB)
IT 96
Do 07.07. 15:55301746 %1014
1013
1003
SSW 2 (3)>= 10000Nicht signifikant 
GRAFENWOEHR
DE 414
Do 07.07. 16:16151494 %1020
1020
971
WSW 2 (3)>= 10000Bedeckt (640)
Stark bewölkt (460)
Stark bewölkt (270)
Stark bewölkt (270)
 
GRENCHEN
CH 428
Do 07.07. 16:2023941 %1024
1023
973
NW 3 (7)
W - NNW
>= 10000Leicht bewölkt (1700) 
GRENOBLE/ST. GEO
FR 386
Do 07.07. 16:30261139 %1023
1021
977
NNW 4 (15)
WNW - NNO
Bald zeitweise:
N 4 (15) - 6 (26)
>= 10000Nicht signifikant 
GRONINGEN/EELDE
NL 2
Do 07.07. 16:25161068 %1024
1024
1024
NNW 4 (14) - 6 (24)
W - NNO
>= 10000Bedeckt (980)
Stark bewölkt (700)
 
HAHN
DE 494
Do 07.07. 16:20151282 %1025
1025
966
WNW 4 (11)
W - NNW
>= 10000Stark bewölkt (520) 
HAMBURG/FINKENWE
DE 5
Do 07.07. 16:20171063 %1018
1018
1017
NW 4 (15)
W - NNW
>= 10000Stark bewölkt (1200)
Leicht bewölkt (940)
 
HAMBURG/FUHLSBUT
DE 8
Do 07.07. 16:20181059 %1018
1018
1017
NW 5 (18)
Bald zeitweise:
NW 5 (20) - 7 (30)
>= 10000Stark bewölkt (1000) 
HANNOVER
DE 53
Do 07.07. 16:20171482 %1020
1020
1014
NW 4 (14)
Bald zeitweise:
NW 5 (20) - 8 (35)
>= 10000Stark bewölkt (940)
Stark bewölkt (790)
Stark bewölkt (520)
 
HOF
DE 578
Do 07.07. 16:20151388 %1020
1020
952
WSW 3 (8)
SSW - W
>= 10000Stark bewölkt (400)
Wolkig (300)
 
HOHENFELS (USA-A
DE 436
Do 07.07. 16:06171377 %1021
1021
969
SW 2 (6)>= 10000Stark bewölkt (1000)
Stark bewölkt (820)
Stark bewölkt (670)
Stark bewölkt (670)
Wolkig (550)
Nieselregen (schwach)
HOHN (GER-AFB)
DE 6
Do 07.07. 16:20181059 %1017
1017
1016
WNW 5 (19) - 7 (29)>= 10000Stark bewölkt (1200) 
HOLZDORF
DE 79
Do 07.07. 16:20171588 %1016
1016
1007
S 2 (4)9000Stark bewölkt (1500)
Stark bewölkt (370)
Leicht bewölkt (240)
Regen-Schauer (schwach)
HYERES/LE PALYVE
FR 3
Do 07.07. 16:30331432 %1014
1014
1014
SW 3 (8)
S - WSW
>= 10000Nicht signifikant 
ILLESHEIM (USA-A
DE 326
Do 07.07. 16:26161488 %1022
1022
983
W 3 (7)>= 10000Stark bewölkt (2100)
Stark bewölkt (1400)
Leicht bewölkt (61)
 
INGOLSTADT(GER-M
DE 366
Do 07.07. 16:20181373 %1021
1021
978
W 4 (15)7000Stark bewölkt (1800)
Stark bewölkt (1300)
Wolkig (820)
Regen-Schauer (schwach)
INNSBRUCK AIRPOR
AT 570
Do 07.07. 16:20181373 %1022
1021
955
O 2 (4)
NNO - SSO
>= 10000Stark bewölkt (2600)
Wolkig (1800)
Leicht bewölkt (610)
Regen-Schauer (schwach)
Bald zeitweise: Regen-Schauer
ISTRANA (IT-AFB)
IT 42
Do 07.07. 15:55281958 %1014
1014
1009
S 1 (2)>= 10000Wolkig (1500)
Leicht bewölkt Cb (760)
 
KARLOVY VARY
CZ 600
Do 07.07. 16:30131188 %1020
1021
950
W 2 (6)
SW - WNW
9000Bedeckt (340)
Stark bewölkt (240)
 
KARLSRUHE/BADEN
DE 122
Do 07.07. 16:20231353 %1023
1023
1008
W 3 (7)
SW - N
>= 10000Leicht bewölkt (1100) 
KATTERBACH (USA-
DE 466
Do 07.07. 16:19171694 %1021
1021
966
W 4 (13) - 5 (16)>= 10000Leicht bewölkt (6100)
Leicht bewölkt (910)
Leicht bewölkt (700)
Nieselregen (schwach)
KBELY
CZ 281
Do 07.07. 16:00161277 %1019
1019
986
SW 4 (12)>= 10000Stark bewölkt (1500)
Stark bewölkt (980)
Regen (schwach)
KIEL/HOLTENAU CI
DE 24
Do 07.07. 16:20171063 %1017
1017
1014
NW 4 (15)>= 10000Stark bewölkt (1000) 
KLAGENFURT(CIV/M
AT 450
Do 07.07. 16:20191683 %1020
1019
967
W 2 (4)
SW - WNW
>= 10000Stark bewölkt (2400)
Leicht bewölkt Cb (1100)
Leicht bewölkt (760)
Regen (schwach)
KLEINE-BROGEL(BA
BE 50
Do 07.07. 16:25201364 %1026
1026
1020
NW 3 (9)>= 10000Wolkig (1700)
Wolkig (790)
 
KOELN/BONN
DE 92
Do 07.07. 16:20181373 %1024
1024
1013
NW 4 (14)>= 10000Stark bewölkt (1100)
Stark bewölkt (760)
Regen (schwach)
LAAGE
DE 40
Do 07.07. 16:20171588 %1015
1015
1010
WNW 4 (12)>= 10000Stark bewölkt (1400)
Leicht bewölkt (240)
 
LAUPHEIM (GER-AR
DE 536
Do 07.07. 16:20191056 %1023
1022
960
WNW 3 (10)>= 10000Stark bewölkt (2700)
Leicht bewölkt (1200)
 
LE LUC/LE CANNET
FR 79
Do 07.07. 16:30341634 %1013
1012
1004
SSO 3 (10)
OSO - SSW
>= 10000  
LECHFELD (GER-AF
DE 548
Do 07.07. 16:20191160 %1022
1021
957
W 4 (11)>= 10000Stark bewölkt (3000)
Stark bewölkt (1500)
Wolkig (1100)
 
LEEUWARDEN RNLAF
NL 1
Do 07.07. 16:29171063 %1025
1025
1025
NNW 5 (18)
WNW - N
>= 10000Bedeckt (1000)
Wolkig (820)
Leicht bewölkt (700)
 
LEIPZIG/SCHKEUDI
DE 129
Do 07.07. 16:20181688 %1017
1017
1002
W 4 (11)
Bald zeitweise:
WNW 4 (15) - 6 (25)
>= 10000Wolkig Cb (760)Regen-Schauer (schwach)
Bald zeitweise: Regen-Schauer
LELYSTAD
NL -3
Do 07.07. 16:25171168 %1026
1026
1026
NNW 5 (18)
WNW - N
>= 10000Stark bewölkt (1100)
Wolkig (910)
Leicht bewölkt (820)
 
LES EPLATURES
CH 1018
Do 07.07. 16:20181059 %1027
1026
909
Uml 2 (6)>= 10000Stark bewölkt (910) 
LEVALDIGI
IT 377
Do 07.07. 16:20301643 %1016
1014
971
Uml 2 (4)>= 10000  
LINZ (CIV/MIL)
AT 290
Do 07.07. 16:20151388 %1022
1022
987
WNW 3 (9)>= 10000Stark bewölkt (1500)
Leicht bewölkt (1100)
 
LJUBLJANA/BRNIK
SI 363
Do 07.07. 16:30191683 %1018
1017
975
W 4 (11)>= 10000Stark bewölkt (3000)
Wolkig (1500)
Leicht bewölkt Cb (1200)
Regen-Schauer
Bald zeitweise: Gewitter mit Regen
LOCARNO
CH 198
Do 07.07. 16:20281751 %1015
1014
991
W 2 (3)
SW - NW
>= 10000Leicht bewölkt (2400) 
LUEBECK/BLANKENS
DE 13
Do 07.07. 16:20181268 %1017
1017
1015
WNW 4 (11)
WSW - NNW
>= 10000Stark bewölkt (820) 
LUGANO (PVT/AUT)
CH 276
Do 07.07. 16:20291748 %1015
1013
982
Uml 2 (3)>= 10000Leicht bewölkt (2000) 
LUXEMBOURG (AUT)
LU 374
Do 07.07. 16:20191160 %1026
1025
981
NNW 4 (13)
WNW - N
>= 10000Stark bewölkt (1500)
Wolkig (1000)
Leicht bewölkt (760)
 
LUXEUIL/ST. SAUV
FR 266
Do 07.07. 16:30221253 %1025
1024
993
NNW 3 (9)
W - N
>= 10000Stark bewölkt (1900)
Wolkig (1500)
Leicht bewölkt (1200)
 
LYON/SATOLAS
FR 234
Do 07.07. 16:30261345 %1024
1023
996
N 5 (17)>= 10000Nicht signifikant 
MANNHEIM
DE 94
Do 07.07. 16:20211153 %1023
1023
1012
NW 4 (12)>= 10000Stark bewölkt (1200) 
MARSEILLE/MARIGN
FR 20
Do 07.07. 16:30331126 %1015
1015
1013
NNW 6 (22)
Bald zeitweise:
NNW 6 (25) - 8 (40)
>= 10000Nicht signifikant 
MEIERWIK
DE 33
Do 07.07. 16:20171168 %1017
1017
1013
NW 5 (19)>= 10000  
MEIRINGEN
CH 570
Do 07.07. 16:20231147 %1024
1022
957
NW 2 (6)
W - N
>= 10000Wolkig (2300)
Wolkig (1500)
 
MEMMINGEN ALLGAU
DE 625
Do 07.07. 16:20201260 %1023
1022
950
W 3 (10)>= 10000Stark bewölkt (1700)
Wolkig (1500)
Leicht bewölkt (1200)
 
MEPPEN
DE 18
Do 07.07. 16:20171063 %1023
1023
1021
NNW 3 (9) - 6 (26)   
METZ-NANCY-LORRA
FR 259
Do 07.07. 16:30211153 %1026
1025
995
N 4 (12)
WNW - NNO
Bald zeitweise:
N 4 (15) - 6 (25)
>= 10000Stark bewölkt (1700)
Wolkig (1500)
Wolkig (1300)
 
MILANO/LINATE
IT 109
Do 07.07. 16:20321536 %1014
1013
1001
W 2 (5)
SSW - N
>= 10000Nicht signifikant 
MILANO/MALPENSA
IT 221
Do 07.07. 16:20331330 %1015
1013
989
Uml 2 (6)>= 10000Leicht bewölkt (1500) 
MONCHENGLADBACH
DE 38
Do 07.07. 16:20191473 %1024
1024
1019
WNW 4 (13)>= 10000Stark bewölkt (850)
Stark bewölkt (700)
 
MUENSTER/OSNABRU
DE 46
Do 07.07. 16:20171272 %1023
1023
1017
NW 4 (13)
W - NO
>= 10000Stark bewölkt (1400)
Wolkig (610)
 
MUNICH-FLUGHAFEN
DE 445
Do 07.07. 16:20191368 %1022
1021
969
W 3 (8)
WSW - NW
>= 10000Wolkig (1100) 
NANCY/ESSEY
FR 214
Do 07.07. 16:30211360 %1026
1026
1000
NW 3 (10)
W - N
>= 10000Bedeckt (1600)
Wolkig (1300)
Leicht bewölkt (1000)
 
NANCY/OCHEY (FAF
FR 328
Do 07.07. 16:30191264 %1026
1026
987
NW 4 (13)
W - NNW
>= 10000Bedeckt (1600)
Stark bewölkt (1300)
Wolkig (940)
 
NEUBURG/DONAU
DE 378
Do 07.07. 16:35171482 %1021
1021
976
W 2 (3)6000Stark bewölkt (1800)
Wolkig (1200)
Leicht bewölkt (910)
Regen-Schauer (schwach)
NICE/COTE D'AZUR
FR 4
Do 07.07. 16:30292162 %1014
1014
1014
S 3 (7)>= 10000Nicht signifikant 
NIEDERRHEIN
DE 27
Do 07.07. 16:20191264 %1025
1025
1022
NW 3 (9)
WNW - N
>= 10000Stark bewölkt (1400)
Wolkig (850)
 
NIEDERSTETTEN (G
DE 466
Do 07.07. 16:20151388 %1022
1022
967
WNW 3 (9)>= 10000Stark bewölkt (2400)
Wolkig (1100)
Leicht bewölkt (370)
 
NOERVENICH (GAF)
DE 108
Do 07.07. 16:20181373 %1025
1025
1012
W 4 (12)>= 10000Stark bewölkt (1100)
Wolkig (610)
 
NORDHOLZ (GER-NA
DE 23
Do 07.07. 16:20161172 %1020
1020
1017
NW 5 (18)>= 10000Stark bewölkt (980)
Leicht bewölkt (550)
 
NUERNBERG
DE 312
Do 07.07. 16:20181477 %1021
1021
984
W 3 (10)>= 10000Wolkig (490) Bald zeitweise: Regen-Schauer
OBERPFAFFENHOFEN
DE 587
Do 07.07. 16:20191578 %1023
1022
954
W 2 (6)>= 10000Leicht bewölkt (1700) 
PADERBORN/LIPPST
DE 211
Do 07.07. 16:20171377 %1022
1022
997
WNW 3 (7)
W - N
>= 10000Bedeckt (1000)
Stark bewölkt (880)
Leicht bewölkt (430)
Regen-Schauer (schwach)
PAGANELLA MOUNTA
IT 2099
Do 07.07. 15:55131082 %1024
1026
794
SW 2 (6)>= 10000Wolkig (460)
Leicht bewölkt (150)
 
PAYERNE (MIL/AUT
CH 490
Do 07.07. 16:20251141 %1024
1022
966
NNW 3 (8)
WNW - NNO
   
PERUGIA
IT 206
Do 07.07. 16:20311436 %1013
1012
989
NO 4 (13)>= 10000Leicht bewölkt (2600) 
PIAN ROSA (MTN T
IT 3473
Do 07.07. 15:553-270 %1033
1053
674
NNO 7 (29) - 8 (40)   
PISA (CIV/IT-AFB
IT 1
Do 07.07. 16:15272379 %1014
1014
1014
WNW 3 (9)>= 10000Leicht bewölkt Cb (610) 
PLZEN LINE
CZ 353
Do 07.07. 16:00141288 %1021
1021
979
WSW 2 (6)
SSW - WNW
>= 10000Bedeckt (550)
Stark bewölkt (460)
 
POINT MARINA/RAV
IT 6
Do 07.07. 15:55321946 %1015
1015
1014
O 3 (8)>= 10000Wolkig (2100)
Wolkig (910)
 
PORTOROZ
SI 2
Do 07.07. 16:30271754 %1014
1014
1014
WNW 3 (7)>= 10000Stark bewölkt (6100)
Leicht bewölkt (1500)
 
PRAGUE/RUZYNE
CZ 364
Do 07.07. 16:30161277 %1019
1019
976
WSW 5 (17)>= 10000Stark bewölkt (910)
Wolkig (430)
 
PULA
HR 63
Do 07.07. 16:3031621 %1014
1014
1006
SSO 2 (6)
O - SW
>= 10000Nicht signifikant 
RESIA PASS
IT 1684
Do 07.07. 15:5519643 %1023
1020
835
N 3 (8)>= 10000Stark bewölkt (910)
Leicht bewölkt (760)
 
RHEINECK/ALTENRH
CH 396
Do 07.07. 16:20211153 %1023
1022
976
NNW 2 (6)
W - N
>= 10000Stark bewölkt (1800)
Wolkig (1500)
 
RIJEKA/OMISALJ
HR 80
Do 07.07. 16:30291133 %1014
1014
1004
N 3 (8)
NW - NO
>= 10000Leicht bewölkt (1500) 
RIMINI (CIV/IT-A
IT 10
Do 07.07. 16:20281751 %1014
1014
1013
O 3 (9)
ONO - SO
>= 10000Leicht bewölkt (910) 
RIVOLTO (IT-AFB)
IT 49
Do 07.07. 15:55281751 %1015
1015
1009
SSO 2 (3)>= 10000Wolkig (4900)
Wolkig (910)
 
ROLLE PASS
IT 1997
Do 07.07. 14:5515967 %1025
1025
805
WSW 2 (5)>= 10000Wolkig (1200)
Leicht bewölkt (760)
 
RONCHI LEGIONARI
IT 6
Do 07.07. 16:20291133 %1014
1014
1013
W 2 (6)>= 10000Stark bewölkt (6100)
Leicht bewölkt (2700)
 
SAARBRUECKEN
DE 317
Do 07.07. 16:20201156 %1025
1024
987
NNW 3 (10)
WNW - N
>= 10000Wolkig (1400) 
SALON (FAFB)
FR 57
Do 07.07. 16:3031926 %1015
1015
1008
NNW 6 (22)>= 10000Nicht signifikant 
SALZBURG AIRPORT
AT 427
Do 07.07. 16:20161277 %1022
1022
971
SO 2 (5)
OSO - S
>= 10000Stark bewölkt (1400)
Leicht bewölkt (210)
Regen (schwach)
SAMEDAN
CH 1708
Do 07.07. 16:2014658 %1025
1026
834
N 5 (18) - 7 (29)>= 10000Stark bewölkt (2600)
Wolkig (2100)
Regen (schwach)
SCHAFFEN
BE 25
Do 07.07. 16:25191264 %1027
1027
1024
NNW 4 (13)>= 10000Stark bewölkt (700) 
SCHLESWIG(GER-NA
DE 22
Do 07.07. 16:2017959 %1017
1017
1014
WNW 6 (23)>= 10000Stark bewölkt (850)
Leicht bewölkt (670)
 
SCHWAEBISCH HALL
DE 398
Do 07.07. 16:20171377 %1023
1023
976
WNW 4 (12)>= 10000Bedeckt (1300)
Stark bewölkt (1000)
Wolkig (580)
 
SIEGERLAND
DE 595
Do 07.07. 16:20131294 %1023
1024
953
WNW 4 (13)>= 10000Bedeckt (400)
Stark bewölkt (240)
Leicht bewölkt (180)
 
SION (MIL/CIV/AU
CH 482
Do 07.07. 16:2028727 %1021
1019
964
Uml 2 (6) - 5 (20)>= 10000Stark bewölkt (3000) 
SONDERBORG AIRPO
DK 23
Do 07.07. 16:20191264 %1016
1016
1013
WNW 4 (13)
WSW - NW
>= 10000Leicht bewölkt (940) 
SPANGDAHLEM (USA
DE 365
Do 07.07. 16:11171272 %1025
1025
982
NW 3 (9)>= 10000Bedeckt (910)
Wolkig (580)
 
STRASBOURG/ENTZH
FR 149
Do 07.07. 16:30231353 %1024
1024
1006
NW 4 (15)
Bald zeitweise:
NNW 4 (15) - 6 (25)
>= 10000Stark bewölkt (2700)
Leicht bewölkt (1100)
 
STUTTGART/ECHTER
DE 374
Do 07.07. 16:20201156 %1023
1022
979
WNW 5 (16)
W - NW
>= 10000Wolkig (1100)Regen-Schauer (schwach)
Bald zeitweise: Regen-Schauer
SZCZECIN/GOLENIO
PL 47
Do 07.07. 16:30171588 %1015
1015
1009
S 3 (7)
SSO - SW
>= 10000Stark bewölkt (370)
Wolkig Cb (300)
Leicht bewölkt (240)
 
TORINO/CASELLE
IT 295
Do 07.07. 16:20311743 %1015
1013
980
Uml 1 (2)>= 10000Nicht signifikant 
TREVISO(CIV/IT-A
IT 10
Do 07.07. 16:20271548 %1014
1014
1013
SSO 2 (4)
O - S
>= 10000Wolkig (2100)
Leicht bewölkt (1200)
 
VENEZIA/TESSERA
IT 3
Do 07.07. 16:20261654 %1014
1014
1014
S 2 (4)>= 10000Leicht bewölkt (1800) Bald zeitweise: Regen
VILLAFRANCA(CV/M
IT 67
Do 07.07. 16:20321434 %1013
1013
1005
WSW 3 (7)
SSW - WNW
>= 10000Nicht signifikant 
VLIELAND ISLAND
NL 2
Do 07.07. 16:25161068 %1026
1026
1026
NNW 6 (22)>= 10000Bedeckt (1000)
Stark bewölkt (850)
 
VOLKEL RNLAFB
NL 20
Do 07.07. 16:25191264 %1025
1025
1023
NNW 3 (10) - 6 (22)
W - NNO
Bald zeitweise:
NNW 3 (10) - 6 (22)
>= 10000Stark bewölkt (1300)
Wolkig (1100)
Leicht bewölkt (940)
 
WESTERLAND/SYLT
DE 8
Do 07.07. 16:20161172 %1019
1019
1018
NNW 6 (25)>= 10000Bedeckt (910)
Leicht bewölkt (670)
 
WIESBADEN (USA-A
DE 141
Do 07.07. 16:30211256 %1023
1023
1006
NW 5 (16) - 5 (20)>= 10000Bedeckt (2000)
Wolkig (1300)
Wolkig (1000)
Regen (schwach)
WITTMUNDHAVEN(GA
DE 5
Do 07.07. 16:20151282 %1022
1022
1021
NW 5 (18)>= 10000Stark bewölkt (1100)
Wolkig (760)
Leicht bewölkt (610)
 
WUNSTORF (GER-AF
DE 57
Do 07.07. 16:20171377 %1020
1020
1013
NNW 5 (17)>= 10000Stark bewölkt (1500)
Stark bewölkt (670)
Leicht bewölkt (460)
 
ZELTWEG (MIL)
AT 678
Do 07.07. 16:20181268 %1020
1019
941
Uml 2 (3)>= 10000Stark bewölkt (2700)
Wolkig (1800)
Leicht bewölkt (1400)
 Bald zeitweise: Regen-Schauer (schwach)
ZUID-LIMBURG/BEE
NL 112
Do 07.07. 16:25181373 %1026
1026
1012
NW 3 (9) - 5 (19)
SW - NNO
>= 10000Stark bewölkt (790)
Stark bewölkt (700)
Wolkig (610)
 
ZURICH-KLOTEN (A
CH 424
Do 07.07. 16:20221150 %1024
1023
974
WNW 3 (10)>= 10000Wolkig (2100) 

Altimeter: Einstellung am Altimeter (Höhenmesser), die Höhe 0 muss auf diesen Luftdruckwert zeigen, damit das Gerät die Stationshöhe richtig anzeigt.

NN: Luftdruck reduziert auf "Normal Null", auf Meereshöhe, dieser von der Temperatur abhängige Wert wird bisweilen unkorrekt einfach als "Luftdruck" bezeichnet. Eigentlich nur eine fiktive Größe, die es erlaubt, Stationen auf unterschiedlichen Höhen miteinander zu vergleichen.

Station: Realer Luftdruck an der Station.